Time;durP1;ratioP1;P1;durP2;ratioP2;P2;SDS_P1;SDS_P2;PMS_P1;PMS_P2;Temp;Humidity;BMP_temperature;BMP_pressure;BME280_temperature;BME280_humidity;BME280_pressure;Samples;Min_cycle;Max_cycle;Signal;HPM_P1;HPM_P2
2023/04/06 00:01:00;;;;;;;6.37;1.30;;;23.20;99.90;;;;;;5115271;28;20170;-71
2023/04/06 00:03:28;;;;;;;3.73;1.00;;;23.70;99.90;;;;;;5115290;28;20173;-71
2023/04/06 00:05:55;;;;;;;3.63;1.10;;;24.20;99.90;;;;;;5115017;28;20173;-71
2023/04/06 00:08:23;;;;;;;4.53;1.07;;;24.50;99.90;;;;;;5114919;28;20288;-70
2023/04/06 00:10:50;;;;;;;5.60;1.03;;;24.90;99.90;;;;;;5114817;28;20565;-70
2023/04/06 00:13:19;;;;;;;4.57;0.87;;;25.00;99.90;;;;;;5114259;28;20166;-71
2023/04/06 00:15:47;;;;;;;5.03;1.10;;;24.40;99.90;;;;;;5114905;28;20698;-69
2023/04/06 00:18:15;;;;;;;6.90;1.20;;;24.00;99.90;;;;;;5114845;28;20183;-69
2023/04/06 00:20:42;;;;;;;3.97;0.93;;;23.80;99.90;;;;;;5114579;28;20202;-70
2023/04/06 00:23:10;;;;;;;5.97;1.13;;;23.60;99.90;;;;;;5114561;28;20257;-70
2023/04/06 00:25:38;;;;;;;4.00;0.70;;;23.80;99.90;;;;;;5114628;28;20179;-71
2023/04/06 00:28:05;;;;;;;6.83;1.10;;;24.10;99.90;;;;;;5114441;28;20265;-70
2023/04/06 00:30:33;;;;;;;3.13;0.80;;;24.60;99.90;;;;;;5112995;28;20225;-70
2023/04/06 00:33:01;;;;;;;5.20;1.13;;;24.60;99.90;;;;;;5114331;27;20170;-71
2023/04/06 00:35:29;;;;;;;2.27;0.70;;;24.40;99.90;;;;;;5112892;28;20269;-70
2023/04/06 00:37:57;;;;;;;3.97;0.80;;;24.20;99.90;;;;;;5114404;28;20633;-70
2023/04/06 00:40:25;;;;;;;1.90;0.83;;;24.10;99.90;;;;;;5114866;28;20175;-69
2023/04/06 00:42:52;;;;;;;4.10;1.13;;;24.20;99.90;;;;;;5114463;28;20579;-68
2023/04/06 00:45:20;;;;;;;6.83;1.03;;;24.20;99.90;;;;;;5114158;28;20181;-69
2023/04/06 00:47:48;;;;;;;4.23;0.80;;;24.10;99.90;;;;;;5114037;28;20174;-69
2023/04/06 00:50:15;;;;;;;2.30;0.60;;;24.10;99.90;;;;;;5114055;28;20294;-69
2023/04/06 00:52:43;;;;;;;5.53;0.83;;;24.10;99.90;;;;;;5114093;28;20171;-69
2023/04/06 00:55:11;;;;;;;4.70;1.00;;;24.00;99.90;;;;;;5114022;28;20213;-70
2023/04/06 00:57:39;;;;;;;2.43;1.13;;;23.90;99.90;;;;;;5114008;28;20254;-69
2023/04/06 01:00:07;;;;;;;8.27;2.20;;;23.90;99.90;;;;;;5113837;28;20527;-70
2023/04/06 01:02:35;;;;;;;6.93;2.37;;;23.30;99.90;;;;;;5114113;28;20676;-70
2023/04/06 01:05:03;;;;;;;7.33;2.57;;;22.80;99.90;;;;;;5113852;28;20182;-70
2023/04/06 01:07:31;;;;;;;7.50;1.60;;;22.50;99.90;;;;;;5113683;28;20175;-70
2023/04/06 01:09:59;;;;;;;5.40;1.40;;;22.10;99.90;;;;;;5112314;28;20218;-69
2023/04/06 01:12:27;;;;;;;3.53;1.30;;;21.80;99.90;;;;;;5113564;28;20168;-70
2023/04/06 01:14:54;;;;;;;5.20;1.73;;;21.40;99.90;;;;;;5113610;28;20649;-69
2023/04/06 01:17:22;;;;;;;3.87;1.20;;;21.10;99.90;;;;;;5113108;28;20259;-69
2023/04/06 01:19:53;;;;;;;6.90;1.43;;;20.80;99.90;;;;;;5113673;28;20178;-68
2023/04/06 01:22:21;;;;;;;3.83;1.13;;;20.70;99.90;;;;;;5113371;28;20641;-68
2023/04/06 01:24:49;;;;;;;5.37;1.17;;;20.60;99.90;;;;;;5113518;28;20233;-69
2023/04/06 01:27:17;;;;;;;2.37;1.00;;;20.60;99.90;;;;;;5113330;28;20639;-69
2023/04/06 01:29:44;;;;;;;4.33;0.93;;;20.50;99.90;;;;;;5113568;28;20219;-69
2023/04/06 01:32:12;;;;;;;7.93;1.40;;;20.40;99.90;;;;;;5113507;28;20171;-69
2023/04/06 01:34:40;;;;;;;4.77;1.33;;;20.40;99.90;;;;;;5113300;28;20182;-68
2023/04/06 01:37:08;;;;;;;2.50;1.27;;;20.40;99.90;;;;;;5113127;28;20269;-68
2023/04/06 01:39:36;;;;;;;6.13;1.03;;;20.50;99.90;;;;;;5113388;28;20261;-68
2023/04/06 01:42:04;;;;;;;4.20;1.10;;;20.70;99.90;;;;;;5113463;28;20171;-69
2023/04/06 01:44:34;;;;;;;3.73;1.13;;;20.90;99.90;;;;;;5113537;28;20180;-71
2023/04/06 01:47:02;;;;;;;7.87;1.90;;;21.10;99.90;;;;;;5112953;28;20235;-70
2023/04/06 01:49:30;;;;;;;7.37;1.87;;;21.30;99.90;;;;;;5113185;28;20661;-69
2023/04/06 01:51:57;;;;;;;7.97;1.70;;;21.40;99.90;;;;;;5113184;28;20265;-70
2023/04/06 01:54:28;;;;;;;11.13;1.77;;;21.60;99.90;;;;;;5113237;28;20163;-72
2023/04/06 01:56:56;;;;;;;4.43;1.63;;;21.60;99.90;;;;;;5113301;28;20289;-69
2023/04/06 01:59:24;;;;;;;11.23;1.70;;;21.70;99.90;;;;;;5113049;28;20175;-69
2023/04/06 02:01:52;;;;;;;5.33;1.40;;;21.90;99.90;;;;;;5112954;28;20656;-69
2023/04/06 02:04:21;;;;;;;5.47;1.10;;;22.00;99.90;;;;;;5113220;28;20172;-70
2023/04/06 02:06:48;;;;;;;5.50;1.63;;;21.90;99.90;;;;;;5113138;28;20652;-70
2023/04/06 02:09:16;;;;;;;3.40;1.80;;;21.90;99.90;;;;;;5113068;28;20202;-69
2023/04/06 02:11:44;;;;;;;1.53;0.90;;;21.90;99.90;;;;;;5113359;28;20169;-69
2023/04/06 02:14:12;;;;;;;7.93;0.80;;;21.90;99.90;;;;;;5112830;28;20230;-70
2023/04/06 02:16:43;;;;;;;1.70;0.70;;;22.10;99.90;;;;;;5112848;28;20629;-69
2023/04/06 02:19:11;;;;;;;5.53;1.07;;;22.30;99.90;;;;;;5111616;28;20178;-69
2023/04/06 02:21:41;;;;;;;4.47;0.83;;;22.70;99.90;;;;;;5113013;28;20633;-69
2023/04/06 02:24:09;;;;;;;2.70;1.10;;;23.00;99.90;;;;;;5111501;28;20236;-70
2023/04/06 02:26:37;;;;;;;3.70;1.30;;;23.40;99.90;;;;;;5113021;28;20174;-69
2023/04/06 02:29:05;;;;;;;2.37;1.00;;;23.70;99.90;;;;;;5112790;28;20175;-69
2023/04/06 02:31:33;;;;;;;1.93;0.60;;;23.80;99.90;;;;;;5112758;28;20546;-68
2023/04/06 02:34:01;;;;;;;3.33;0.87;;;23.90;99.90;;;;;;5112606;28;20579;-69
2023/04/06 02:36:29;;;;;;;3.07;1.13;;;23.90;99.90;;;;;;5113057;28;20231;-70
2023/04/06 02:38:57;;;;;;;1.83;0.60;;;24.10;99.90;;;;;;5115352;28;20235;-70
2023/04/06 02:41:26;;;;;;;5.00;0.80;;;23.80;99.90;;;;;;5116608;28;20221;-69
2023/04/06 02:43:54;;;;;;;2.53;0.80;;;23.60;99.90;;;;;;5116474;28;20228;-69
2023/04/06 02:46:22;;;;;;;7.27;1.20;;;23.50;99.90;;;;;;5116746;28;20208;-69
2023/04/06 02:48:49;;;;;;;2.90;1.20;;;23.50;99.90;;;;;;5116455;28;20632;-70
2023/04/06 02:51:17;;;;;;;3.77;0.90;;;23.70;99.90;;;;;;5116408;27;20190;-70
2023/04/06 02:53:45;;;;;;;2.33;1.10;;;23.90;99.90;;;;;;5116346;28;20656;-70
2023/04/06 02:56:13;;;;;;;5.33;1.30;;;23.90;99.90;;;;;;5116409;28;20227;-70
2023/04/06 02:58:40;;;;;;;8.00;1.50;;;23.70;99.90;;;;;;5116249;28;20273;-69
2023/04/06 03:01:08;;;;;;;3.57;1.47;;;23.60;99.90;;;;;;5116943;28;20182;-72
2023/04/06 03:03:36;;;;;;;4.03;1.23;;;23.70;99.90;;;;;;5099503;28;20189;-71
2023/04/06 03:06:04;;;;;;;4.40;1.10;;;23.80;99.90;;;;;;5102622;28;20189;-72
2023/04/06 03:08:32;;;;;;;5.63;1.60;;;23.90;99.90;;;;;;5106713;28;20546;-73
2023/04/06 03:11:00;;;;;;;6.40;1.30;;;23.90;99.90;;;;;;5099455;28;20664;-69
2023/04/06 03:13:27;;;;;;;4.40;1.30;;;24.00;99.90;;;;;;5105516;28;20182;-71
2023/04/06 03:15:55;;;;;;;4.50;1.70;;;24.00;99.90;;;;;;5113124;28;20221;-71
2023/04/06 03:18:26;;;;;;;2.67;1.10;;;24.10;99.90;;;;;;5099978;28;20194;-70
2023/04/06 03:20:54;;;;;;;2.73;1.33;;;24.20;99.90;;;;;;5108303;28;20197;-73
2023/04/06 03:23:22;;;;;;;3.87;1.33;;;24.10;99.90;;;;;;5111685;28;20693;-71
2023/04/06 03:25:50;;;;;;;5.63;0.97;;;24.00;99.90;;;;;;5100547;28;20190;-71
2023/04/06 03:28:18;;;;;;;4.50;0.97;;;23.80;99.90;;;;;;5112175;28;20554;-69
2023/04/06 03:30:46;;;;;;;7.70;1.63;;;23.60;99.90;;;;;;5108133;28;20611;-71
2023/04/06 03:33:14;;;;;;;3.53;1.20;;;23.40;99.90;;;;;;5101535;28;20597;-70
2023/04/06 03:35:41;;;;;;;4.63;1.40;;;23.50;99.90;;;;;;5108715;28;20182;-71
2023/04/06 03:38:09;;;;;;;4.20;1.27;;;23.10;99.90;;;;;;5093861;28;20255;-69
2023/04/06 03:40:37;;;;;;;4.10;1.57;;;23.10;99.90;;;;;;5100971;28;20657;-70
2023/04/06 03:43:05;;;;;;;3.50;1.20;;;22.90;99.90;;;;;;5113684;28;20190;-71
2023/04/06 03:45:33;;;;;;;5.10;1.30;;;22.90;99.90;;;;;;5113800;28;20189;-71
2023/04/06 03:48:01;;;;;;;5.07;1.83;;;22.90;99.90;;;;;;5112693;27;20182;-71
2023/04/06 03:50:28;;;;;;;3.47;1.47;;;22.90;99.90;;;;;;5110081;28;20664;-71
2023/04/06 03:52:56;;;;;;;4.20;1.30;;;22.90;99.90;;;;;;5094569;28;20175;-72
2023/04/06 03:55:24;;;;;;;4.50;1.20;;;22.90;99.90;;;;;;5105295;28;20198;-71
2023/04/06 03:57:51;;;;;;;8.67;1.47;;;22.90;99.90;;;;;;5093373;28;20271;-71
2023/04/06 04:00:20;;;;;;;4.20;1.47;;;23.10;99.90;;;;;;5094559;28;20187;-70
2023/04/06 04:02:47;;;;;;;5.67;1.23;;;23.30;99.90;;;;;;5097239;28;20213;-71
2023/04/06 04:05:15;;;;;;;4.10;1.10;;;23.60;99.90;;;;;;5114934;28;20203;-72
2023/04/06 04:07:43;;;;;;;9.83;1.73;;;23.80;99.90;;;;;;5113454;28;20190;-71
2023/04/06 04:10:11;;;;;;;9.37;1.77;;;24.10;99.90;;;;;;5112071;28;20305;-72
2023/04/06 04:12:39;;;;;;;5.23;1.50;;;24.10;99.90;;;;;;5093773;28;20187;-71
2023/04/06 04:15:07;;;;;;;7.93;1.10;;;24.10;99.90;;;;;;5093670;28;20212;-69
2023/04/06 04:17:34;;;;;;;7.30;1.53;;;24.30;99.90;;;;;;5096355;28;20222;-71
2023/04/06 04:20:02;;;;;;;6.70;0.80;;;24.60;99.90;;;;;;5091809;28;20194;-71
2023/04/06 04:22:30;;;;;;;2.77;0.80;;;25.00;99.90;;;;;;5093045;28;20176;-72
2023/04/06 04:25:02;;;;;;;6.37;1.40;;;25.30;99.90;;;;;;5097181;28;20604;-70
2023/04/06 04:27:29;;;;;;;4.03;1.17;;;25.50;99.90;;;;;;5101552;28;20192;-71
2023/04/06 04:29:57;;;;;;;2.23;1.33;;;25.50;99.90;;;;;;5092889;28;20222;-72
2023/04/06 04:32:27;;;;;;;3.33;0.97;;;25.30;99.90;;;;;;5096104;28;20174;-69
2023/04/06 04:34:55;;;;;;;4.77;0.90;;;25.00;99.90;;;;;;5099671;28;20186;-71
2023/04/06 04:37:22;;;;;;;5.40;0.80;;;24.90;99.90;;;;;;5099979;28;20215;-71
2023/04/06 04:39:50;;;;;;;3.03;0.70;;;24.70;99.90;;;;;;5109336;28;20622;-70
2023/04/06 04:42:18;;;;;;;5.43;1.00;;;24.50;99.90;;;;;;5101223;27;20182;-70
2023/04/06 04:44:46;;;;;;;3.57;0.67;;;24.40;99.90;;;;;;5101843;28;20190;-69
2023/04/06 04:47:13;;;;;;;2.37;0.80;;;24.30;99.90;;;;;;5100581;28;20171;-72
2023/04/06 04:49:41;;;;;;;3.70;0.80;;;24.20;99.90;;;;;;5101807;28;20616;-70
2023/04/06 04:52:09;;;;;;;2.30;0.97;;;24.20;99.90;;;;;;5100182;28;20209;-70
2023/04/06 04:54:37;;;;;;;3.23;0.77;;;24.20;99.90;;;;;;5102455;28;20646;-70
2023/04/06 04:57:05;;;;;;;3.80;1.07;;;23.80;99.90;;;;;;5100133;28;20166;-70
2023/04/06 04:59:35;;;;;;;3.77;0.87;;;23.70;99.90;;;;;;5102822;28;20640;-70
2023/04/06 05:02:02;;;;;;;4.03;0.70;;;23.80;99.90;;;;;;5101342;28;20190;-71
2023/04/06 05:04:30;;;;;;;2.27;1.00;;;23.80;99.90;;;;;;5092337;28;20185;-70
2023/04/06 05:07:08;;;;;;;2.63;0.97;;;24.00;99.90;;;;;;5092191;28;20187;-71
2023/04/06 05:09:36;;;;;;;2.17;0.80;;;24.00;99.90;;;;;;5091738;28;20214;-72
2023/04/06 05:12:04;;;;;;;3.47;1.40;;;23.90;99.90;;;;;;5095835;28;20586;-71
2023/04/06 05:14:32;;;;;;;5.70;1.10;;;23.80;99.90;;;;;;5091959;28;20175;-71
2023/04/06 05:17:00;;;;;;;3.73;0.80;;;23.70;99.90;;;;;;5091554;28;20223;-72
2023/04/06 05:19:28;;;;;;;2.67;0.97;;;23.50;99.90;;;;;;5092042;28;20185;-70
2023/04/06 05:21:56;;;;;;;4.40;1.00;;;23.40;99.90;;;;;;5091988;28;20182;-71
2023/04/06 05:24:23;;;;;;;2.00;0.90;;;23.50;99.90;;;;;;5093167;28;20657;-71
2023/04/06 05:26:51;;;;;;;2.10;0.60;;;23.60;99.90;;;;;;5112152;28;20285;-73
2023/04/06 05:29:21;;;;;;;3.40;1.00;;;23.60;99.90;;;;;;5106966;28;20294;-71
2023/04/06 05:31:48;;;;;;;4.40;0.90;;;23.70;99.90;;;;;;5103390;28;20548;-72
2023/04/06 05:34:17;;;;;;;4.53;1.03;;;23.70;99.90;;;;;;5100898;28;20181;-72
2023/04/06 05:36:45;;;;;;;3.97;1.03;;;23.60;99.90;;;;;;5101754;28;20182;-70
2023/04/06 05:39:13;;;;;;;5.30;1.50;;;23.60;99.90;;;;;;5110158;28;20206;-71
2023/04/06 05:41:41;;;;;;;2.00;0.87;;;23.60;99.90;;;;;;5106731;28;21776;-68
2023/04/06 05:44:08;;;;;;;2.50;0.80;;;23.50;99.90;;;;;;5105131;28;20172;-72
2023/04/06 05:46:36;;;;;;;2.50;0.70;;;23.40;99.90;;;;;;5091237;28;20178;-72
2023/04/06 05:49:04;;;;;;;2.20;0.90;;;23.30;99.90;;;;;;5095329;28;20229;-71
2023/04/06 05:51:31;;;;;;;1.50;0.80;;;23.20;99.90;;;;;;5107317;28;20722;-75
2023/04/06 05:53:59;;;;;;;2.77;1.00;;;23.20;99.90;;;;;;5091068;28;20172;-72
2023/04/06 05:56:27;;;;;;;4.37;0.70;;;23.20;99.90;;;;;;5091602;28;20557;-75
2023/04/06 05:58:55;;;;;;;4.87;0.90;;;23.20;99.90;;;;;;5091466;28;20642;-74
2023/04/06 06:01:22;;;;;;;5.57;1.10;;;23.10;99.90;;;;;;5091169;28;20266;-73
2023/04/06 06:03:50;;;;;;;3.00;1.10;;;23.10;99.90;;;;;;5099888;28;20179;-72
2023/04/06 06:06:18;;;;;;;6.40;1.67;;;23.10;99.90;;;;;;5091511;28;20328;-70
2023/04/06 06:08:46;;;;;;;1.83;0.80;;;22.90;99.90;;;;;;5091059;28;20177;-71
2023/04/06 06:11:13;;;;;;;3.73;1.20;;;22.90;99.90;;;;;;5099481;28;20296;-72
2023/04/06 06:13:41;;;;;;;4.77;1.10;;;22.80;99.90;;;;;;5114831;28;20536;-71
2023/04/06 06:16:10;;;;;;;4.07;1.40;;;22.80;99.90;;;;;;5114136;28;20709;-73
2023/04/06 06:18:37;;;;;;;3.90;0.80;;;22.70;99.90;;;;;;5114241;28;20261;-72
2023/04/06 06:21:05;;;;;;;3.17;0.90;;;22.70;99.90;;;;;;5095404;28;20264;-71
2023/04/06 06:23:32;;;;;;;2.73;1.00;;;22.70;99.90;;;;;;5094981;28;20216;-72
2023/04/06 06:26:00;;;;;;;6.47;1.10;;;22.70;99.90;;;;;;5099012;28;20728;-71
2023/04/06 06:28:28;;;;;;;2.00;0.80;;;22.60;99.90;;;;;;5097685;28;20217;-71
2023/04/06 06:30:55;;;;;;;5.43;0.97;;;22.50;99.90;;;;;;5115087;28;20734;-71
2023/04/06 06:33:23;;;;;;;5.53;1.00;;;22.60;99.90;;;;;;5115547;28;20640;-71
2023/04/06 06:35:51;;;;;;;4.03;1.20;;;22.60;99.90;;;;;;5096749;28;20186;-69
2023/04/06 06:38:19;;;;;;;5.33;1.10;;;22.50;99.90;;;;;;5094400;28;20628;-71
2023/04/06 06:40:48;;;;;;;12.03;1.23;;;22.50;99.90;;;;;;5094975;28;20175;-73
2023/04/06 06:43:16;;;;;;;4.23;1.10;;;22.50;99.90;;;;;;5094944;28;20266;-73
2023/04/06 06:45:44;;;;;;;2.17;1.30;;;22.30;99.90;;;;;;5111924;28;20178;-71
2023/04/06 06:48:11;;;;;;;4.53;1.27;;;22.30;99.90;;;;;;5115290;28;20237;-71
2023/04/06 06:50:39;;;;;;;4.07;0.90;;;22.40;99.90;;;;;;5115136;28;20213;-71
2023/04/06 06:53:06;;;;;;;2.30;0.80;;;22.30;99.90;;;;;;5100907;28;20203;-71
2023/04/06 06:55:33;;;;;;;5.33;1.17;;;22.30;99.90;;;;;;5094786;28;20694;-71
2023/04/06 06:58:01;;;;;;;3.10;1.00;;;22.20;99.90;;;;;;5100761;28;20642;-71
2023/04/06 07:00:28;;;;;;;2.07;1.10;;;22.10;99.90;;;;;;5114436;28;20239;-71
2023/04/06 07:02:56;;;;;;;5.60;1.93;;;22.10;99.90;;;;;;5111860;28;20223;-73
2023/04/06 07:05:23;;;;;;;4.50;1.30;;;22.30;99.90;;;;;;5094797;28;20283;-71
2023/04/06 07:07:50;;;;;;;4.23;1.30;;;22.30;99.90;;;;;;5110140;28;20559;-71
2023/04/06 07:10:18;;;;;;;6.87;1.47;;;22.10;99.90;;;;;;5114790;28;20219;-72
2023/04/06 07:12:46;;;;;;;4.20;1.10;;;22.10;99.90;;;;;;5114666;28;20185;-71
2023/04/06 07:15:13;;;;;;;4.80;1.30;;;22.00;99.90;;;;;;5114281;28;20228;-71
2023/04/06 07:17:46;;;;;;;8.33;1.67;;;21.90;99.90;;;;;;5114484;28;20233;-71
2023/04/06 07:20:14;;;;;;;7.00;1.57;;;21.90;99.90;;;;;;5109828;27;20643;-72
2023/04/06 07:22:48;;;;;;;7.33;1.20;;;21.90;99.90;;;;;;5101665;28;20228;-71
2023/04/06 07:25:15;;;;;;;4.10;1.47;;;21.80;99.90;;;;;;5094280;28;20246;-72
2023/04/06 07:27:42;;;;;;;2.43;0.90;;;22.00;99.90;;;;;;5094115;28;20545;-70
2023/04/06 07:30:10;;;;;;;7.57;1.20;;;21.90;99.90;;;;;;5093644;28;20610;-71
2023/04/06 07:32:37;;;;;;;5.50;1.40;;;21.90;99.90;;;;;;5093819;28;20171;-74
2023/04/06 07:35:05;;;;;;;3.77;1.13;;;21.80;99.90;;;;;;5094083;28;20554;-72
2023/04/06 07:37:33;;;;;;;3.43;1.20;;;21.80;99.90;;;;;;5093486;28;20184;-72
2023/04/06 07:40:00;;;;;;;4.57;1.17;;;21.60;99.90;;;;;;5094000;28;20262;-72
2023/04/06 07:42:27;;;;;;;6.13;1.50;;;21.50;99.90;;;;;;5092453;28;20519;-72
2023/04/06 07:44:55;;;;;;;3.97;1.27;;;21.60;99.90;;;;;;5093524;28;20186;-71
2023/04/06 07:47:23;;;;;;;5.07;1.40;;;21.50;99.90;;;;;;5093659;28;20181;-73
2023/04/06 07:49:50;;;;;;;6.60;1.37;;;21.40;99.90;;;;;;5093760;28;20215;-72
2023/04/06 07:52:18;;;;;;;4.60;1.13;;;21.40;99.90;;;;;;5093335;28;20183;-72
2023/04/06 07:54:45;;;;;;;5.00;1.30;;;21.30;99.90;;;;;;5099449;28;20190;-72
2023/04/06 07:57:12;;;;;;;6.23;1.20;;;21.30;99.90;;;;;;5107804;28;20259;-73
2023/04/06 07:59:40;;;;;;;4.53;1.70;;;21.20;99.90;;;;;;5113386;28;20565;-71
2023/04/06 08:02:07;;;;;;;3.17;1.40;;;21.20;99.90;;;;;;5113977;28;20654;-71
2023/04/06 08:04:35;;;;;;;5.10;1.63;;;21.10;99.90;;;;;;5113824;28;20526;-72
2023/04/06 08:07:03;;;;;;;3.13;1.10;;;21.00;99.90;;;;;;5113259;28;20183;-73
2023/04/06 08:09:30;;;;;;;7.87;1.50;;;21.00;99.90;;;;;;5113620;28;20202;-72
2023/04/06 08:11:58;;;;;;;4.20;1.60;;;21.00;99.90;;;;;;5113589;28;20175;-70
2023/04/06 08:14:25;;;;;;;5.50;1.37;;;20.90;99.90;;;;;;5112954;28;20173;-72
2023/04/06 08:16:53;;;;;;;4.90;1.53;;;20.80;99.90;;;;;;5113367;28;20218;-72
2023/04/06 08:19:20;;;;;;;4.20;1.10;;;20.80;99.90;;;;;;5113622;28;20190;-70
2023/04/06 08:21:48;;;;;;;3.87;1.43;;;20.70;99.90;;;;;;5111691;28;20697;-71
2023/04/06 08:24:15;;;;;;;4.73;1.30;;;20.60;99.90;;;;;;5113611;28;20178;-72
2023/04/06 08:26:43;;;;;;;4.27;1.30;;;20.50;99.90;;;;;;5113308;28;20178;-72
2023/04/06 08:29:11;;;;;;;3.10;1.20;;;20.40;99.90;;;;;;5113030;28;20266;-73
2023/04/06 08:31:38;;;;;;;2.27;1.27;;;20.30;99.90;;;;;;5113425;28;20179;-70
2023/04/06 08:34:06;;;;;;;4.17;1.13;;;20.30;99.90;;;;;;5112967;28;20187;-74
2023/04/06 08:36:34;;;;;;;5.93;1.73;;;20.30;99.90;;;;;;5102822;28;20271;-72
2023/04/06 08:39:02;;;;;;;5.93;1.30;;;20.20;99.90;;;;;;5092803;28;20569;-72
2023/04/06 08:41:29;;;;;;;5.93;1.30;;;20.10;99.90;;;;;;5092787;28;20174;-71
2023/04/06 08:44:01;;;;;;;2.83;1.30;;;20.00;99.90;;;;;;5092433;28;20638;-72
2023/04/06 08:46:30;;;;;;;5.27;1.70;;;19.80;99.90;;;;;;5095331;28;20194;-71
2023/04/06 08:48:59;;;;;;;3.43;1.50;;;19.70;99.90;;;;;;5094929;28;20190;-72
2023/04/06 08:51:28;;;;;;;4.67;1.50;;;19.60;99.90;;;;;;5092027;28;20249;-72
2023/04/06 08:53:57;;;;;;;3.10;1.27;;;19.50;99.90;;;;;;5092437;28;20480;-72
2023/04/06 08:56:26;;;;;;;2.83;1.33;;;19.40;99.90;;;;;;5092359;28;20174;-71
2023/04/06 08:58:57;;;;;;;4.67;1.53;;;19.30;99.90;;;;;;5092125;28;20180;-73
2023/04/06 09:01:28;;;;;;;4.00;1.10;;;19.20;99.90;;;;;;5092550;28;20553;-72
2023/04/06 09:04:04;;;;;;;3.03;1.40;;;19.00;99.90;;;;;;5092463;28;20611;-71
2023/04/06 09:06:32;;;;;;;2.67;1.20;;;18.90;99.90;;;;;;5091750;28;20176;-73
2023/04/06 09:08:59;;;;;;;4.63;1.40;;;18.70;99.90;;;;;;5105625;28;20298;-71
2023/04/06 09:11:27;;;;;;;5.10;1.90;;;18.60;99.90;;;;;;5112558;28;20680;-72
2023/04/06 09:13:57;;;;;;;6.57;1.80;;;18.50;99.90;;;;;;5110665;28;20599;-73
2023/04/06 09:16:25;;;;;;;5.57;1.63;;;18.40;99.90;;;;;;5112430;28;20627;-71
2023/04/06 09:18:53;;;;;;;4.67;1.47;;;18.40;99.90;;;;;;5112364;28;20216;-71
2023/04/06 09:21:20;;;;;;;3.63;1.30;;;18.30;99.90;;;;;;5112443;28;20166;-72
2023/04/06 09:23:58;;;;;;;4.37;1.50;;;18.20;99.90;;;;;;5108935;28;20170;-70
2023/04/06 09:26:26;;;;;;;4.53;1.30;;;18.10;99.90;;;;;;5111993;27;20203;-70
2023/04/06 09:28:55;;;;;;;9.03;1.90;;;18.00;99.90;;;;;;5112388;28;20196;-70
2023/04/06 09:31:25;;;;;;;5.73;1.60;;;17.90;99.90;;;;;;5111837;28;20214;-71
2023/04/06 09:33:53;;;;;;;5.73;1.70;;;17.80;99.90;;;;;;5112279;28;20207;-71
2023/04/06 09:36:31;;;;;;;4.93;1.80;;;17.80;99.90;;;;;;5111264;28;20183;-70
2023/04/06 09:39:04;;;;;;;5.33;1.70;;;17.70;99.90;;;;;;5111663;28;20586;-71
2023/04/06 09:41:41;;;;;;;7.43;1.70;;;17.70;99.90;;;;;;5109893;28;20198;-70
2023/04/06 09:44:11;;;;;;;4.70;1.90;;;17.70;99.90;;;;;;5110740;28;20223;-72
2023/04/06 09:46:42;;;;;;;2.77;1.53;;;17.50;99.90;;;;;;5110864;28;20536;-71
2023/04/06 09:49:11;;;;;;;6.73;1.87;;;17.50;99.90;;;;;;5111373;28;20262;-71
2023/04/06 09:51:44;;;;;;;5.47;2.13;;;17.40;99.90;;;;;;5111803;28;20181;-71
2023/04/06 09:54:16;;;;;;;5.73;1.90;;;17.30;99.90;;;;;;5111557;28;20697;-72
2023/04/06 09:56:51;;;;;;;5.57;2.10;;;17.30;99.90;;;;;;5110820;28;20175;-72
2023/04/06 09:59:30;;;;;;;4.50;2.07;;;17.20;99.90;;;;;;5111429;28;20609;-73
2023/04/06 10:02:00;;;;;;;3.77;2.33;;;17.20;99.90;;;;;;5111111;28;20254;-70
2023/04/06 10:04:54;;;;;;;7.00;2.30;;;17.10;99.90;;;;;;5111123;28;20198;-72
2023/04/06 10:07:22;;;;;;;6.07;1.87;;;17.10;99.90;;;;;;5110014;28;20557;-71
2023/04/06 10:09:50;;;;;;;6.90;2.17;;;17.10;99.90;;;;;;5110956;28;20202;-70
2023/04/06 10:12:18;;;;;;;4.93;2.33;;;17.00;99.90;;;;;;5111180;28;20543;-72
2023/04/06 10:14:46;;;;;;;4.93;1.80;;;17.00;99.90;;;;;;5111262;28;20179;-71
2023/04/06 10:17:13;;;;;;;5.00;1.90;;;16.90;99.90;;;;;;5109137;28;20596;-71
2023/04/06 10:19:52;;;;;;;6.00;2.53;;;16.90;99.90;;;;;;5110881;28;20171;-71
2023/04/06 10:22:30;;;;;;;11.43;3.07;;;17.00;99.90;;;;;;5111215;28;20181;-73
2023/04/06 10:24:57;;;;;;;5.27;2.67;;;16.90;99.90;;;;;;5110777;28;20594;-70
2023/04/06 10:27:33;;;;;;;12.20;2.50;;;16.90;99.90;;;;;;5110805;28;20171;-72
2023/04/06 10:30:07;;;;;;;6.23;2.70;;;16.90;99.90;;;;;;5111127;28;20691;-70
2023/04/06 10:32:39;;;;;;;5.80;2.20;;;16.90;99.90;;;;;;5110642;28;20257;-72
2023/04/06 10:35:11;;;;;;;5.47;2.47;;;16.80;99.90;;;;;;5111460;28;20167;-71
2023/04/06 10:37:51;;;;;;;5.33;2.30;;;16.80;99.90;;;;;;5112409;28;20175;-72
2023/04/06 10:40:27;;;;;;;7.23;2.50;;;16.70;99.90;;;;;;5112553;28;20171;-72
2023/04/06 10:42:56;;;;;;;7.10;2.87;;;16.70;99.90;;;;;;5112521;28;20178;-72
2023/04/06 10:45:26;;;;;;;9.40;2.67;;;16.70;99.90;;;;;;5112292;28;20171;-72
2023/04/06 10:47:56;;;;;;;6.83;2.83;;;16.70;99.90;;;;;;5110965;28;20175;-72
2023/04/06 10:50:24;;;;;;;9.20;2.67;;;16.70;99.90;;;;;;5112307;28;20202;-71
2023/04/06 10:53:02;;;;;;;9.97;2.73;;;16.60;99.90;;;;;;5112135;28;20377;-73
2023/04/06 10:55:31;;;;;;;6.03;2.57;;;16.60;99.90;;;;;;5112239;28;20182;-70
2023/04/06 10:57:58;;;;;;;8.43;2.57;;;16.50;99.90;;;;;;5112895;28;20166;-72
2023/04/06 11:00:26;;;;;;;5.60;2.20;;;16.60;99.90;;;;;;5115878;28;20645;-72
2023/04/06 11:03:03;;;;;;;6.70;2.50;;;16.50;99.90;;;;;;5115898;28;20605;-72
2023/04/06 11:05:31;;;;;;;5.70;2.30;;;16.50;99.90;;;;;;5115614;28;20171;-72
2023/04/06 11:07:58;;;;;;;7.50;3.07;;;16.50;99.90;;;;;;5115614;28;20167;-71
2023/04/06 11:10:26;;;;;;;5.93;2.30;;;16.40;99.90;;;;;;5115351;28;20297;-71
2023/04/06 11:12:55;;;;;;;6.47;2.73;;;16.30;99.90;;;;;;5114278;28;20205;-72
2023/04/06 11:15:23;;;;;;;10.70;2.97;;;16.30;99.90;;;;;;5115597;28;20243;-71
2023/04/06 11:17:50;;;;;;;9.17;3.10;;;16.30;99.90;;;;;;5115299;28;20645;-72
2023/04/06 11:20:19;;;;;;;7.47;2.33;;;16.30;99.90;;;;;;5115064;28;20189;-72
2023/04/06 11:22:53;;;;;;;10.53;2.70;;;16.20;99.90;;;;;;5115325;27;20277;-72
2023/04/06 11:25:21;;;;;;;4.43;2.20;;;16.20;99.90;;;;;;5115418;28;20648;-71
2023/04/06 11:27:53;;;;;;;10.60;2.83;;;16.10;99.90;;;;;;5114008;28;20239;-72
2023/04/06 11:30:21;;;;;;;8.57;3.20;;;16.10;99.90;;;;;;5115133;28;20214;-72
2023/04/06 11:32:48;;;;;;;6.63;2.63;;;16.10;99.90;;;;;;5115072;28;20643;-72
2023/04/06 11:35:25;;;;;;;5.23;2.10;;;16.00;99.90;;;;;;5115011;28;20179;-73
2023/04/06 11:37:52;;;;;;;5.13;2.50;;;16.00;99.90;;;;;;5115376;28;20182;-72
2023/04/06 11:40:24;;;;;;;4.60;2.70;;;16.00;99.90;;;;;;5108760;28;20210;-72
2023/04/06 11:42:58;;;;;;;9.07;2.67;;;16.00;99.90;;;;;;5102847;28;20170;-72
2023/04/06 11:45:26;;;;;;;8.00;2.93;;;15.90;99.90;;;;;;5097443;28;20630;-72
2023/04/06 11:48:01;;;;;;;6.60;2.57;;;15.90;99.90;;;;;;5094606;28;20248;-71
2023/04/06 11:50:34;;;;;;;8.60;2.97;;;15.80;99.90;;;;;;5108206;28;20791;-72
2023/04/06 11:53:02;;;;;;;9.23;3.63;;;15.80;99.90;;;;;;5113856;28;20188;-72
2023/04/06 11:55:37;;;;;;;6.17;2.47;;;15.80;99.90;;;;;;5112329;28;20299;-72
2023/04/06 11:58:04;;;;;;;5.03;2.70;;;15.80;99.90;;;;;;5114873;28;20284;-71
2023/04/06 12:00:34;;;;;;;8.63;2.87;;;15.80;99.90;;;;;;5114880;28;20652;-72
2023/04/06 12:03:01;;;;;;;7.53;2.73;;;15.70;99.90;;;;;;5102649;28;20232;-72
2023/04/06 12:05:29;;;;;;;5.40;2.80;;;15.70;99.90;;;;;;5094421;28;20530;-72
2023/04/06 12:07:57;;;;;;;7.43;2.60;;;15.60;99.90;;;;;;5094301;28;20189;-71
2023/04/06 12:10:24;;;;;;;6.47;2.77;;;15.60;99.90;;;;;;5093805;28;20240;-72
2023/04/06 12:12:52;;;;;;;7.53;3.17;;;15.60;99.90;;;;;;5111754;28;20178;-72
2023/04/06 12:15:19;;;;;;;7.53;3.47;;;15.60;99.90;;;;;;5114332;28;20190;-71
2023/04/06 12:17:47;;;;;;;8.50;3.13;;;15.60;99.90;;;;;;5099059;28;20599;-71
2023/04/06 12:20:14;;;;;;;8.13;3.40;;;15.60;99.90;;;;;;5094129;28;20641;-72
2023/04/06 12:22:42;;;;;;;4.97;2.50;;;15.60;99.90;;;;;;5097597;28;20273;-72
2023/04/06 12:25:10;;;;;;;7.13;3.63;;;15.60;99.90;;;;;;5105703;28;20203;-71
2023/04/06 12:27:37;;;;;;;8.53;3.20;;;15.50;99.90;;;;;;5093886;28;20637;-73
2023/04/06 12:30:05;;;;;;;7.97;3.30;;;15.50;99.90;;;;;;5093604;28;20670;-72
2023/04/06 12:32:32;;;;;;;6.23;3.30;;;15.40;99.90;;;;;;5093818;28;20184;-73
2023/04/06 12:35:00;;;;;;;6.07;3.20;;;15.40;99.90;;;;;;5093777;28;20283;-73
2023/04/06 12:37:28;;;;;;;8.00;3.17;;;15.40;99.90;;;;;;5093759;28;20186;-72
2023/04/06 12:39:55;;;;;;;9.00;3.53;;;15.40;99.90;;;;;;5093693;28;20681;-71
2023/04/06 12:42:23;;;;;;;8.90;3.27;;;15.40;99.90;;;;;;5093729;28;20558;-71
2023/04/06 12:44:50;;;;;;;8.37;3.30;;;15.40;99.90;;;;;;5099139;28;20300;-72
2023/04/06 12:47:17;;;;;;;7.90;3.43;;;15.40;99.90;;;;;;5114098;28;20171;-72
2023/04/06 12:49:45;;;;;;;7.27;3.07;;;15.40;99.90;;;;;;5113943;28;20210;-71
2023/04/06 12:52:12;;;;;;;8.53;3.70;;;15.30;99.90;;;;;;5096423;28;20203;-72